Time,TemperatureF,DewpointF,PressureIn,WindDirection,WindDirectionDegrees,WindSpeedMPH,WindSpeedGustMPH,Humidity,HourlyPrecipIn,Conditions,Clouds,dailyrainin,SoftwareType,DateUTC
2013-11-29 00:11:00,40.0,37.0,30.25,WNW,299,0.0,-999.0,88,-99.99,,,-99.99,,2013-11-29 08:11:00,
2013-11-29 00:21:00,40.0,37.0,30.25,WNW,299,0.0,-999.0,88,-99.99,,,-99.99,,2013-11-29 08:21:00,
2013-11-29 00:42:00,39.0,36.0,30.26,WNW,299,0.0,-999.0,88,-99.99,,,-99.99,,2013-11-29 08:42:00,
2013-11-29 00:53:00,39.0,36.0,30.26,WNW,299,0.0,-999.0,88,-99.99,,,-99.99,,2013-11-29 08:53:00,
2013-11-29 01:11:00,39.0,35.0,30.27,WNW,299,0.0,-999.0,87,-99.99,,,-99.99,,2013-11-29 09:11:00,
2013-11-29 01:21:00,39.0,35.0,30.27,WNW,299,0.0,-999.0,87,-99.99,,,-99.99,,2013-11-29 09:21:00,
2013-11-29 01:43:00,38.0,35.0,30.28,WNW,299,0.0,-999.0,88,-99.99,,,-99.99,,2013-11-29 09:43:00,
2013-11-29 01:52:00,38.0,35.0,30.28,WNW,299,0.0,-999.0,88,-99.99,,,-99.99,,2013-11-29 09:52:00,
2013-11-29 02:13:00,37.0,34.0,30.28,WNW,299,0.0,-999.0,88,-99.99,,,-99.99,,2013-11-29 10:13:00,
2013-11-29 02:23:00,37.0,34.0,30.28,WNW,299,0.0,-999.0,88,-99.99,,,-99.99,,2013-11-29 10:23:00,
2013-11-29 02:42:00,37.0,34.0,30.29,WNW,299,0.0,-999.0,88,-99.99,,,-99.99,,2013-11-29 10:42:00,
2013-11-29 02:52:00,37.0,34.0,30.29,WNW,299,0.0,-999.0,88,-99.99,,,-99.99,,2013-11-29 10:52:00,
2013-11-29 03:12:00,36.0,33.0,30.30,WNW,299,0.0,-999.0,89,-99.99,,,-99.99,,2013-11-29 11:12:00,
2013-11-29 03:21:00,36.0,33.0,30.30,WNW,299,0.0,-999.0,89,-99.99,,,-99.99,,2013-11-29 11:21:00,
2013-11-29 03:42:00,36.0,33.0,30.31,WNW,299,0.0,-999.0,89,-99.99,,,-99.99,,2013-11-29 11:42:00,
2013-11-29 03:52:00,36.0,33.0,30.31,WNW,299,0.0,-999.0,89,-99.99,,,-99.99,,2013-11-29 11:52:00,
2013-11-29 04:11:00,36.0,33.0,30.31,WNW,299,0.0,-999.0,89,-99.99,,,-99.99,,2013-11-29 12:11:00,
2013-11-29 04:21:00,36.0,33.0,30.31,WNW,299,0.0,-999.0,89,-99.99,,,-99.99,,2013-11-29 12:21:00,
2013-11-29 04:42:00,35.0,32.0,30.32,WNW,299,0.0,-999.0,89,-99.99,,,-99.99,,2013-11-29 12:42:00,
2013-11-29 04:52:00,35.0,32.0,30.32,WNW,299,0.0,-999.0,89,-99.99,,,-99.99,,2013-11-29 12:52:00,
2013-11-29 05:11:00,35.0,32.0,30.31,WNW,299,0.0,-999.0,89,-99.99,,,-99.99,,2013-11-29 13:11:00,
2013-11-29 05:22:00,35.0,32.0,30.31,WNW,299,0.0,-999.0,89,-99.99,,,-99.99,,2013-11-29 13:22:00,
2013-11-29 05:42:00,35.0,32.0,30.32,WNW,299,0.0,-999.0,89,-99.99,,,-99.99,,2013-11-29 13:42:00,
2013-11-29 05:52:00,35.0,32.0,30.32,WNW,299,0.0,-999.0,89,-99.99,,,-99.99,,2013-11-29 13:52:00,
2013-11-29 06:11:00,34.0,31.0,30.32,WNW,299,1.0,-999.0,89,-99.99,,,-99.99,,2013-11-29 14:11:00,
2013-11-29 06:22:00,34.0,31.0,30.32,WNW,299,1.0,-999.0,89,-99.99,,,-99.99,,2013-11-29 14:22:00,
2013-11-29 06:42:00,34.0,31.0,30.33,WNW,299,0.0,-999.0,89,-99.99,,,-99.99,,2013-11-29 14:42:00,
2013-11-29 06:52:00,34.0,31.0,30.33,WNW,299,0.0,-999.0,89,-99.99,,,-99.99,,2013-11-29 14:52:00,
2013-11-29 07:11:00,34.0,31.0,30.34,WNW,299,0.0,-999.0,89,-99.99,,,-99.99,,2013-11-29 15:11:00,
2013-11-29 07:21:00,34.0,31.0,30.34,WNW,299,0.0,-999.0,89,-99.99,,,-99.99,,2013-11-29 15:21:00,
2013-11-29 07:43:00,34.0,31.0,30.34,WNW,299,0.0,-999.0,89,-99.99,,,-99.99,,2013-11-29 15:43:00,
2013-11-29 07:53:00,34.0,31.0,30.34,WNW,299,0.0,-999.0,89,-99.99,,,-99.99,,2013-11-29 15:53:00,
2013-11-29 08:13:00,33.0,30.0,30.33,WNW,299,0.0,-999.0,89,-99.99,,,-99.99,,2013-11-29 16:13:00,
2013-11-29 08:23:00,33.0,30.0,30.33,WNW,299,0.0,-999.0,89,-99.99,,,-99.99,,2013-11-29 16:23:00,
2013-11-29 08:43:00,33.0,30.0,30.35,WNW,299,0.0,-999.0,89,-99.99,,,-99.99,,2013-11-29 16:43:00,
2013-11-29 08:53:00,33.0,30.0,30.35,WNW,299,0.0,-999.0,89,-99.99,,,-99.99,,2013-11-29 16:53:00,
2013-11-29 09:12:00,35.0,33.0,30.36,WNW,299,1.0,-999.0,91,-99.99,,,-99.99,,2013-11-29 17:12:00,
2013-11-29 09:22:00,35.0,33.0,30.36,WNW,299,1.0,-999.0,91,-99.99,,,-99.99,,2013-11-29 17:22:00,
2013-11-29 09:43:00,36.0,33.0,30.36,WNW,299,0.0,-999.0,90,-99.99,,,-99.99,,2013-11-29 17:43:00,
2013-11-29 09:52:00,36.0,33.0,30.36,WNW,299,0.0,-999.0,90,-99.99,,,-99.99,,2013-11-29 17:52:00,
2013-11-29 10:11:00,39.0,37.0,30.37,WNW,299,0.0,-999.0,91,-99.99,,,-99.99,,2013-11-29 18:11:00,
2013-11-29 10:21:00,39.0,37.0,30.37,WNW,299,0.0,-999.0,91,-99.99,,,-99.99,,2013-11-29 18:21:00,
2013-11-29 10:42:00,46.0,41.0,30.37,SSE,161,0.0,-999.0,83,-99.99,,,-99.99,,2013-11-29 18:42:00,
2013-11-29 10:52:00,46.0,41.0,30.37,SSE,161,0.0,-999.0,83,-99.99,,,-99.99,,2013-11-29 18:52:00,
2013-11-29 13:12:00,55.0,45.0,30.34,ENE,58,1.0,-999.0,70,-99.99,,,-99.99,,2013-11-29 21:12:00,
2013-11-29 13:21:00,55.0,45.0,30.34,ENE,58,1.0,-999.0,70,-99.99,,,-99.99,,2013-11-29 21:21:00,
2013-11-29 13:33:00,55.0,45.0,30.34,ENE,58,1.0,-999.0,70,-99.99,,,-99.99,,2013-11-29 21:33:00,